Weather at Ferrell Flying Field Heliport

Public forecast

Using degrees Fahrenheit for public forecast. Weather courtesy of forecast.io.

Closest aviation weather report (METAR) to Ferrell Flying Field Heliport

Closest report is Middletown Regional Airport, 9.4 nm (17.3 km) NNW. Retrieved 2021/06/23 01:15 UTC (10 minutes ago):

KMWO 230115Z AUTO 32003KT 10SM CLR 15/13 A3006 RMK AO2 T01510126

Closest aviation forecast (TAF) to Ferrell Flying Field Heliport

Closest forecast is Cincinnati Municipal Airport Lunken Field, 17.6 nm (32.5 km) SSW. Retrieved 2021-06-23 00:36 UTC (49 minutes ago):

TAF KLUK 222335Z 2300/2324 VRB03KT P6SM SKC TEMPO 2308/2312 00000KT 4SM BR FM231200 14005KT P6SM BKN250 FM231500 25007KT P6SM SCT150 BKN250